sensor_id;sensor_type;location;lat;lon;timestamp;temperature;humidity
2409;DHT22;8463;48.094;7.970;2022-12-18T00:01:04;-6.00;49.50
2409;DHT22;8463;48.094;7.970;2022-12-18T00:03:35;-6.00;50.10
2409;DHT22;8463;48.094;7.970;2022-12-18T00:06:01;-6.00;50.10
2409;DHT22;8463;48.094;7.970;2022-12-18T00:08:27;-5.90;49.80
2409;DHT22;8463;48.094;7.970;2022-12-18T00:10:54;-5.90;48.80
2409;DHT22;8463;48.094;7.970;2022-12-18T00:13:19;-5.90;47.00
2409;DHT22;8463;48.094;7.970;2022-12-18T00:15:45;-6.00;45.10
2409;DHT22;8463;48.094;7.970;2022-12-18T00:18:10;-6.20;43.90
2409;DHT22;8463;48.094;7.970;2022-12-18T00:20:39;-6.40;41.50
2409;DHT22;8463;48.094;7.970;2022-12-18T00:23:06;-6.50;41.80
2409;DHT22;8463;48.094;7.970;2022-12-18T00:25:33;-6.60;39.60
2409;DHT22;8463;48.094;7.970;2022-12-18T00:28:00;-6.70;38.80
2409;DHT22;8463;48.094;7.970;2022-12-18T00:30:26;-6.70;37.60
2409;DHT22;8463;48.094;7.970;2022-12-18T00:32:51;-6.70;37.60
2409;DHT22;8463;48.094;7.970;2022-12-18T00:35:17;-6.60;37.90
2409;DHT22;8463;48.094;7.970;2022-12-18T00:37:42;-6.50;37.90
2409;DHT22;8463;48.094;7.970;2022-12-18T00:40:09;-6.50;37.80
2409;DHT22;8463;48.094;7.970;2022-12-18T00:42:37;-6.50;37.80
2409;DHT22;8463;48.094;7.970;2022-12-18T00:45:30;-6.60;35.30
2409;DHT22;8463;48.094;7.970;2022-12-18T00:47:57;-6.70;33.80
2409;DHT22;8463;48.094;7.970;2022-12-18T00:50:24;-6.70;34.30
2409;DHT22;8463;48.094;7.970;2022-12-18T00:52:50;-6.70;34.50
2409;DHT22;8463;48.094;7.970;2022-12-18T00:55:16;-6.60;34.30
2409;DHT22;8463;48.094;7.970;2022-12-18T00:57:42;-6.60;34.20
2409;DHT22;8463;48.094;7.970;2022-12-18T01:00:11;-6.60;34.60
2409;DHT22;8463;48.094;7.970;2022-12-18T01:02:37;-6.60;34.70
2409;DHT22;8463;48.094;7.970;2022-12-18T01:05:03;-6.60;34.30
2409;DHT22;8463;48.094;7.970;2022-12-18T01:07:29;-6.70;34.70
2409;DHT22;8463;48.094;7.970;2022-12-18T01:09:55;-6.70;34.50
2409;DHT22;8463;48.094;7.970;2022-12-18T01:12:20;-6.60;33.30
2409;DHT22;8463;48.094;7.970;2022-12-18T01:14:46;-6.70;33.00
2409;DHT22;8463;48.094;7.970;2022-12-18T01:17:14;-6.70;32.80
2409;DHT22;8463;48.094;7.970;2022-12-18T01:19:39;-6.70;32.50
2409;DHT22;8463;48.094;7.970;2022-12-18T01:22:05;-6.70;32.30
2409;DHT22;8463;48.094;7.970;2022-12-18T01:24:31;-6.80;31.10
2409;DHT22;8463;48.094;7.970;2022-12-18T01:26:57;-6.80;31.50
2409;DHT22;8463;48.094;7.970;2022-12-18T01:29:23;-6.80;32.00
2409;DHT22;8463;48.094;7.970;2022-12-18T01:31:49;-6.80;32.10
2409;DHT22;8463;48.094;7.970;2022-12-18T01:34:15;-6.70;32.30
2409;DHT22;8463;48.094;7.970;2022-12-18T01:36:40;-6.70;32.60
2409;DHT22;8463;48.094;7.970;2022-12-18T01:39:10;-6.70;32.20
2409;DHT22;8463;48.094;7.970;2022-12-18T01:41:38;-6.70;31.60
2409;DHT22;8463;48.094;7.970;2022-12-18T01:47:45;-6.90;32.30
2409;DHT22;8463;48.094;7.970;2022-12-18T01:50:38;-6.90;32.70
2409;DHT22;8463;48.094;7.970;2022-12-18T01:53:13;-6.90;32.70
2409;DHT22;8463;48.094;7.970;2022-12-18T01:55:53;-6.80;32.90
2409;DHT22;8463;48.094;7.970;2022-12-18T01:58:21;-6.80;32.20
2409;DHT22;8463;48.094;7.970;2022-12-18T02:00:49;-6.80;32.20
2409;DHT22;8463;48.094;7.970;2022-12-18T02:03:14;-6.80;32.40
2409;DHT22;8463;48.094;7.970;2022-12-18T02:05:58;-6.80;32.70
2409;DHT22;8463;48.094;7.970;2022-12-18T02:08:33;-6.80;31.70
2409;DHT22;8463;48.094;7.970;2022-12-18T02:19:44;-6.90;30.40
2409;DHT22;8463;48.094;7.970;2022-12-18T02:26:11;-7.00;30.70
2409;DHT22;8463;48.094;7.970;2022-12-18T02:28:13;-7.00;31.20
2409;DHT22;8463;48.094;7.970;2022-12-18T02:30:42;-6.90;31.10
2409;DHT22;8463;48.094;7.970;2022-12-18T02:33:08;-6.90;30.80
2409;DHT22;8463;48.094;7.970;2022-12-18T02:35:36;-6.90;30.70
2409;DHT22;8463;48.094;7.970;2022-12-18T02:38:04;-6.80;30.80
2409;DHT22;8463;48.094;7.970;2022-12-18T02:40:30;-6.90;30.10
2409;DHT22;8463;48.094;7.970;2022-12-18T02:43:14;-6.90;30.20
2409;DHT22;8463;48.094;7.970;2022-12-18T02:45:55;-6.90;30.50
2409;DHT22;8463;48.094;7.970;2022-12-18T02:48:25;-6.90;30.80
2409;DHT22;8463;48.094;7.970;2022-12-18T02:54:08;-6.80;30.80
2409;DHT22;8463;48.094;7.970;2022-12-18T02:56:39;-6.90;30.30
2409;DHT22;8463;48.094;7.970;2022-12-18T02:59:19;-6.90;30.00
2409;DHT22;8463;48.094;7.970;2022-12-18T03:02:21;-6.90;29.80
2409;DHT22;8463;48.094;7.970;2022-12-18T03:05:21;-7.00;29.40
2409;DHT22;8463;48.094;7.970;2022-12-18T03:08:02;-7.00;29.90
2409;DHT22;8463;48.094;7.970;2022-12-18T03:10:31;-7.10;30.10
2409;DHT22;8463;48.094;7.970;2022-12-18T03:13:07;-7.20;29.40
2409;DHT22;8463;48.094;7.970;2022-12-18T03:15:47;-7.20;29.80
2409;DHT22;8463;48.094;7.970;2022-12-18T03:18:23;-7.20;30.00
2409;DHT22;8463;48.094;7.970;2022-12-18T03:20:51;-7.20;29.80
2409;DHT22;8463;48.094;7.970;2022-12-18T03:23:22;-7.10;29.80
2409;DHT22;8463;48.094;7.970;2022-12-18T03:25:51;-7.20;29.30
2409;DHT22;8463;48.094;7.970;2022-12-18T03:28:21;-7.20;29.80
2409;DHT22;8463;48.094;7.970;2022-12-18T03:30:52;-7.20;29.80
2409;DHT22;8463;48.094;7.970;2022-12-18T03:33:31;-7.20;29.90
2409;DHT22;8463;48.094;7.970;2022-12-18T03:36:01;-7.20;29.80
2409;DHT22;8463;48.094;7.970;2022-12-18T03:38:26;-7.20;28.80
2409;DHT22;8463;48.094;7.970;2022-12-18T03:46:07;-7.30;29.80
2409;DHT22;8463;48.094;7.970;2022-12-18T03:48:41;-7.30;29.40
2409;DHT22;8463;48.094;7.970;2022-12-18T03:51:24;-7.30;29.00
2409;DHT22;8463;48.094;7.970;2022-12-18T03:54:01;-7.30;28.70
2409;DHT22;8463;48.094;7.970;2022-12-18T03:56:31;-7.30;29.20
2409;DHT22;8463;48.094;7.970;2022-12-18T03:59:00;-7.40;29.50
2409;DHT22;8463;48.094;7.970;2022-12-18T04:01:33;-7.30;29.70
2409;DHT22;8463;48.094;7.970;2022-12-18T04:04:03;-7.40;29.60
2409;DHT22;8463;48.094;7.970;2022-12-18T04:06:30;-7.30;29.50
2409;DHT22;8463;48.094;7.970;2022-12-18T04:08:57;-7.30;29.00
2409;DHT22;8463;48.094;7.970;2022-12-18T04:11:24;-7.30;28.90
2409;DHT22;8463;48.094;7.970;2022-12-18T04:13:49;-7.30;28.80
2409;DHT22;8463;48.094;7.970;2022-12-18T04:16:15;-7.40;28.60
2409;DHT22;8463;48.094;7.970;2022-12-18T04:18:40;-7.50;28.60
2409;DHT22;8463;48.094;7.970;2022-12-18T04:21:06;-7.50;28.90
2409;DHT22;8463;48.094;7.970;2022-12-18T04:23:32;-7.50;29.40
2409;DHT22;8463;48.094;7.970;2022-12-18T04:25:57;-7.50;29.20
2409;DHT22;8463;48.094;7.970;2022-12-18T04:28:23;-7.50;29.50
2409;DHT22;8463;48.094;7.970;2022-12-18T04:30:49;-7.50;29.10
2409;DHT22;8463;48.094;7.970;2022-12-18T04:33:17;-7.60;29.40
2409;DHT22;8463;48.094;7.970;2022-12-18T04:35:43;-7.60;29.40
2409;DHT22;8463;48.094;7.970;2022-12-18T04:38:09;-7.70;28.90
2409;DHT22;8463;48.094;7.970;2022-12-18T04:40:36;-7.80;29.80
2409;DHT22;8463;48.094;7.970;2022-12-18T04:43:02;-7.80;30.30
2409;DHT22;8463;48.094;7.970;2022-12-18T04:45:28;-7.80;30.70
2409;DHT22;8463;48.094;7.970;2022-12-18T04:47:57;-7.70;30.40
2409;DHT22;8463;48.094;7.970;2022-12-18T04:50:23;-7.70;29.70
2409;DHT22;8463;48.094;7.970;2022-12-18T04:52:48;-7.70;30.20
2409;DHT22;8463;48.094;7.970;2022-12-18T04:55:14;-7.70;30.30
2409;DHT22;8463;48.094;7.970;2022-12-18T04:57:39;-7.70;30.30
2409;DHT22;8463;48.094;7.970;2022-12-18T05:00:06;-7.70;29.80
2409;DHT22;8463;48.094;7.970;2022-12-18T05:02:32;-7.70;29.80
2409;DHT22;8463;48.094;7.970;2022-12-18T05:04:57;-7.70;29.70
2409;DHT22;8463;48.094;7.970;2022-12-18T05:07:23;-7.60;29.70
2409;DHT22;8463;48.094;7.970;2022-12-18T05:09:48;-7.60;29.20
2409;DHT22;8463;48.094;7.970;2022-12-18T05:12:14;-7.70;28.90
2409;DHT22;8463;48.094;7.970;2022-12-18T05:14:42;-7.70;29.20
2409;DHT22;8463;48.094;7.970;2022-12-18T05:17:07;-7.70;29.30
2409;DHT22;8463;48.094;7.970;2022-12-18T05:19:33;-7.70;29.60
2409;DHT22;8463;48.094;7.970;2022-12-18T05:21:59;-7.80;29.80
2409;DHT22;8463;48.094;7.970;2022-12-18T05:24:24;-7.70;30.00
2409;DHT22;8463;48.094;7.970;2022-12-18T05:26:50;-7.70;29.70
2409;DHT22;8463;48.094;7.970;2022-12-18T05:29:15;-7.70;28.90
2409;DHT22;8463;48.094;7.970;2022-12-18T05:31:41;-7.70;28.80
2409;DHT22;8463;48.094;7.970;2022-12-18T05:34:07;-7.70;28.50
2409;DHT22;8463;48.094;7.970;2022-12-18T05:36:32;-7.70;28.40
2409;DHT22;8463;48.094;7.970;2022-12-18T05:38:58;-7.80;28.30
2409;DHT22;8463;48.094;7.970;2022-12-18T05:41:25;-7.80;28.60
2409;DHT22;8463;48.094;7.970;2022-12-18T05:43:51;-7.70;29.20
2409;DHT22;8463;48.094;7.970;2022-12-18T05:46:17;-7.80;28.40
2409;DHT22;8463;48.094;7.970;2022-12-18T05:48:44;-7.80;28.30
2409;DHT22;8463;48.094;7.970;2022-12-18T05:51:15;-7.90;28.90
2409;DHT22;8463;48.094;7.970;2022-12-18T05:53:42;-7.90;29.40
2409;DHT22;8463;48.094;7.970;2022-12-18T05:56:10;-7.80;29.90
2409;DHT22;8463;48.094;7.970;2022-12-18T05:58:36;-7.80;30.20
2409;DHT22;8463;48.094;7.970;2022-12-18T06:01:11;-7.90;29.60
2409;DHT22;8463;48.094;7.970;2022-12-18T06:03:37;-7.90;29.60
2409;DHT22;8463;48.094;7.970;2022-12-18T06:06:03;-7.80;29.80
2409;DHT22;8463;48.094;7.970;2022-12-18T06:08:29;-7.90;29.60
2409;DHT22;8463;48.094;7.970;2022-12-18T06:10:54;-7.80;29.50
2409;DHT22;8463;48.094;7.970;2022-12-18T06:13:20;-7.90;29.70
2409;DHT22;8463;48.094;7.970;2022-12-18T06:15:46;-7.80;30.00
2409;DHT22;8463;48.094;7.970;2022-12-18T06:18:12;-7.90;29.20
2409;DHT22;8463;48.094;7.970;2022-12-18T06:20:39;-8.10;28.10
2409;DHT22;8463;48.094;7.970;2022-12-18T06:23:06;-8.20;29.80
2409;DHT22;8463;48.094;7.970;2022-12-18T06:25:32;-8.10;30.50
2409;DHT22;8463;48.094;7.970;2022-12-18T06:27:58;-8.10;30.90
2409;DHT22;8463;48.094;7.970;2022-12-18T06:30:24;-8.10;30.00
2409;DHT22;8463;48.094;7.970;2022-12-18T06:32:50;-8.00;30.00
2409;DHT22;8463;48.094;7.970;2022-12-18T06:35:15;-8.00;30.10
2409;DHT22;8463;48.094;7.970;2022-12-18T06:37:41;-7.90;29.90
2409;DHT22;8463;48.094;7.970;2022-12-18T06:40:07;-8.00;30.00
2409;DHT22;8463;48.094;7.970;2022-12-18T06:42:33;-7.90;30.00
2409;DHT22;8463;48.094;7.970;2022-12-18T06:44:58;-7.90;30.10
2409;DHT22;8463;48.094;7.970;2022-12-18T06:47:24;-7.90;29.80
2409;DHT22;8463;48.094;7.970;2022-12-18T06:49:50;-7.90;29.40
2409;DHT22;8463;48.094;7.970;2022-12-18T06:52:18;-7.90;29.50
2409;DHT22;8463;48.094;7.970;2022-12-18T06:54:44;-8.00;29.70
2409;DHT22;8463;48.094;7.970;2022-12-18T06:57:09;-6.20;59.60
2409;DHT22;8463;48.094;7.970;2022-12-18T06:59:35;-4.40;63.80
2409;DHT22;8463;48.094;7.970;2022-12-18T07:02:00;-4.70;60.90
2409;DHT22;8463;48.094;7.970;2022-12-18T07:04:30;-5.20;59.50
2409;DHT22;8463;48.094;7.970;2022-12-18T07:06:55;-5.80;57.90
2409;DHT22;8463;48.094;7.970;2022-12-18T07:09:21;-6.40;55.40
2409;DHT22;8463;48.094;7.970;2022-12-18T07:11:46;-6.80;54.50
2409;DHT22;8463;48.094;7.970;2022-12-18T07:14:12;-7.00;53.50
2409;DHT22;8463;48.094;7.970;2022-12-18T07:16:38;-7.20;52.80
2409;DHT22;8463;48.094;7.970;2022-12-18T07:19:03;-7.40;50.80
2409;DHT22;8463;48.094;7.970;2022-12-18T07:21:29;-7.50;49.40
2409;DHT22;8463;48.094;7.970;2022-12-18T07:23:54;-7.60;48.10
2409;DHT22;8463;48.094;7.970;2022-12-18T07:26:21;-7.70;45.50
2409;DHT22;8463;48.094;7.970;2022-12-18T07:28:48;-7.70;44.60
2409;DHT22;8463;48.094;7.970;2022-12-18T07:31:16;-7.80;41.00
2409;DHT22;8463;48.094;7.970;2022-12-18T07:33:43;-7.80;41.00
2409;DHT22;8463;48.094;7.970;2022-12-18T07:36:09;-7.80;39.30
2409;DHT22;8463;48.094;7.970;2022-12-18T07:38:35;-7.70;38.00
2409;DHT22;8463;48.094;7.970;2022-12-18T07:41:06;-7.80;36.60
2409;DHT22;8463;48.094;7.970;2022-12-18T07:43:32;-7.80;36.60
2409;DHT22;8463;48.094;7.970;2022-12-18T07:45:58;-7.90;35.40
2409;DHT22;8463;48.094;7.970;2022-12-18T07:48:24;-7.90;35.50
2409;DHT22;8463;48.094;7.970;2022-12-18T07:50:49;-7.90;34.60
2409;DHT22;8463;48.094;7.970;2022-12-18T07:53:15;-8.00;34.70
2409;DHT22;8463;48.094;7.970;2022-12-18T07:55:41;-7.90;34.60
2409;DHT22;8463;48.094;7.970;2022-12-18T07:58:08;-7.90;34.70
2409;DHT22;8463;48.094;7.970;2022-12-18T08:00:34;-7.80;34.40
2409;DHT22;8463;48.094;7.970;2022-12-18T08:03:00;-7.80;34.30
2409;DHT22;8463;48.094;7.970;2022-12-18T08:05:26;-7.70;34.20
2409;DHT22;8463;48.094;7.970;2022-12-18T08:07:52;-7.70;33.90
2409;DHT22;8463;48.094;7.970;2022-12-18T08:10:18;-7.70;33.50
2409;DHT22;8463;48.094;7.970;2022-12-18T08:12:43;-7.70;33.30
2409;DHT22;8463;48.094;7.970;2022-12-18T08:15:09;-7.80;32.30
2409;DHT22;8463;48.094;7.970;2022-12-18T08:17:35;-7.80;32.20
2409;DHT22;8463;48.094;7.970;2022-12-18T08:20:00;-7.90;32.20
2409;DHT22;8463;48.094;7.970;2022-12-18T08:22:26;-7.80;32.20
2409;DHT22;8463;48.094;7.970;2022-12-18T08:24:52;-7.80;31.80
2409;DHT22;8463;48.094;7.970;2022-12-18T08:27:17;-7.80;31.60
2409;DHT22;8463;48.094;7.970;2022-12-18T08:29:43;-7.70;32.00
2409;DHT22;8463;48.094;7.970;2022-12-18T08:32:11;-7.70;32.30
2409;DHT22;8463;48.094;7.970;2022-12-18T08:34:36;-7.70;32.40
2409;DHT22;8463;48.094;7.970;2022-12-18T08:37:02;-7.60;32.70
2409;DHT22;8463;48.094;7.970;2022-12-18T08:39:27;-7.60;32.90
2409;DHT22;8463;48.094;7.970;2022-12-18T08:41:53;-7.50;33.10
2409;DHT22;8463;48.094;7.970;2022-12-18T08:44:37;-7.50;32.70
2409;DHT22;8463;48.094;7.970;2022-12-18T08:47:03;-7.50;32.80
2409;DHT22;8463;48.094;7.970;2022-12-18T08:49:29;-7.40;33.20
2409;DHT22;8463;48.094;7.970;2022-12-18T08:51:56;-7.40;33.50
2409;DHT22;8463;48.094;7.970;2022-12-18T08:54:25;-7.30;32.10
2409;DHT22;8463;48.094;7.970;2022-12-18T08:56:51;-7.30;33.00
2409;DHT22;8463;48.094;7.970;2022-12-18T08:59:17;-7.20;33.00
2409;DHT22;8463;48.094;7.970;2022-12-18T09:01:42;-7.10;33.60
2409;DHT22;8463;48.094;7.970;2022-12-18T09:04:09;-7.00;33.60
2409;DHT22;8463;48.094;7.970;2022-12-18T09:06:35;-6.90;33.90
2409;DHT22;8463;48.094;7.970;2022-12-18T09:09:01;-6.70;34.60
2409;DHT22;8463;48.094;7.970;2022-12-18T09:11:28;-6.60;34.40
2409;DHT22;8463;48.094;7.970;2022-12-18T09:13:55;-6.40;34.80
2409;DHT22;8463;48.094;7.970;2022-12-18T09:16:22;-6.20;35.00
2409;DHT22;8463;48.094;7.970;2022-12-18T09:18:48;-6.00;35.60
2409;DHT22;8463;48.094;7.970;2022-12-18T09:21:16;-5.80;35.30
2409;DHT22;8463;48.094;7.970;2022-12-18T09:23:42;-5.60;35.20
2409;DHT22;8463;48.094;7.970;2022-12-18T09:26:09;-5.50;32.70
2409;DHT22;8463;48.094;7.970;2022-12-18T09:28:34;-5.40;32.00
2409;DHT22;8463;48.094;7.970;2022-12-18T09:31:04;-5.20;31.40
2409;DHT22;8463;48.094;7.970;2022-12-18T09:33:31;-5.10;30.50
2409;DHT22;8463;48.094;7.970;2022-12-18T09:35:56;-4.90;30.30
2409;DHT22;8463;48.094;7.970;2022-12-18T09:38:22;-4.70;30.60
2409;DHT22;8463;48.094;7.970;2022-12-18T09:40:52;-4.50;30.40
2409;DHT22;8463;48.094;7.970;2022-12-18T09:43:36;-4.30;29.90
2409;DHT22;8463;48.094;7.970;2022-12-18T09:46:07;-4.10;29.60
2409;DHT22;8463;48.094;7.970;2022-12-18T09:48:46;-3.80;28.70
2409;DHT22;8463;48.094;7.970;2022-12-18T09:51:19;-3.70;28.40
2409;DHT22;8463;48.094;7.970;2022-12-18T09:54:07;-3.40;28.20
2409;DHT22;8463;48.094;7.970;2022-12-18T09:56:42;-3.20;27.30
2409;DHT22;8463;48.094;7.970;2022-12-18T10:01:42;-2.80;26.00
2409;DHT22;8463;48.094;7.970;2022-12-18T10:04:08;-2.70;25.10
2409;DHT22;8463;48.094;7.970;2022-12-18T10:06:58;-2.60;25.70
2409;DHT22;8463;48.094;7.970;2022-12-18T10:09:34;-2.40;25.20
2409;DHT22;8463;48.094;7.970;2022-12-18T10:20:09;-1.90;24.60
2409;DHT22;8463;48.094;7.970;2022-12-18T10:25:26;-1.60;24.70
2409;DHT22;8463;48.094;7.970;2022-12-18T10:27:56;-1.40;25.10
2409;DHT22;8463;48.094;7.970;2022-12-18T10:30:24;-1.20;25.70
2409;DHT22;8463;48.094;7.970;2022-12-18T10:32:51;-1.00;24.90
2409;DHT22;8463;48.094;7.970;2022-12-18T10:35:22;-0.90;24.80
2409;DHT22;8463;48.094;7.970;2022-12-18T10:46:01;-0.70;25.10
2409;DHT22;8463;48.094;7.970;2022-12-18T10:48:28;-0.60;24.90
2409;DHT22;8463;48.094;7.970;2022-12-18T10:50:54;-0.40;25.20
2409;DHT22;8463;48.094;7.970;2022-12-18T10:53:23;-0.20;26.00
2409;DHT22;8463;48.094;7.970;2022-12-18T10:55:53;0.00;25.60
2409;DHT22;8463;48.094;7.970;2022-12-18T10:58:25;0.00;23.80
2409;DHT22;8463;48.094;7.970;2022-12-18T11:03:37;-0.50;24.10
2409;DHT22;8463;48.094;7.970;2022-12-18T11:06:15;-0.50;25.90
2409;DHT22;8463;48.094;7.970;2022-12-18T11:08:42;-0.40;26.40
2409;DHT22;8463;48.094;7.970;2022-12-18T11:11:35;-0.30;26.50
2409;DHT22;8463;48.094;7.970;2022-12-18T11:14:17;-0.10;26.60
2409;DHT22;8463;48.094;7.970;2022-12-18T11:16:48;0.00;24.90
2409;DHT22;8463;48.094;7.970;2022-12-18T11:21:58;-0.20;26.10
2409;DHT22;8463;48.094;7.970;2022-12-18T11:26:54;0.00;26.70
2409;DHT22;8463;48.094;7.970;2022-12-18T11:29:27;0.20;27.20
2409;DHT22;8463;48.094;7.970;2022-12-18T11:34:42;0.40;27.00
2409;DHT22;8463;48.094;7.970;2022-12-18T11:37:11;0.40;26.30
2409;DHT22;8463;48.094;7.970;2022-12-18T11:39:46;0.40;27.00
2409;DHT22;8463;48.094;7.970;2022-12-18T11:42:23;0.50;27.10
2409;DHT22;8463;48.094;7.970;2022-12-18T11:50:38;0.80;25.80
2409;DHT22;8463;48.094;7.970;2022-12-18T11:53:10;0.60;26.30
2409;DHT22;8463;48.094;7.970;2022-12-18T12:10:18;-0.60;29.50
2409;DHT22;8463;48.094;7.970;2022-12-18T12:21:17;-1.50;31.10
2409;DHT22;8463;48.094;7.970;2022-12-18T12:29:33;-1.90;33.10
2409;DHT22;8463;48.094;7.970;2022-12-18T12:34:59;-1.80;35.70
2409;DHT22;8463;48.094;7.970;2022-12-18T12:37:45;-1.40;35.70
2409;DHT22;8463;48.094;7.970;2022-12-18T12:40:22;-1.20;33.70
2409;DHT22;8463;48.094;7.970;2022-12-18T12:42:55;-1.20;33.20
2409;DHT22;8463;48.094;7.970;2022-12-18T12:48:27;-1.70;35.40
2409;DHT22;8463;48.094;7.970;2022-12-18T12:50:57;-1.60;38.40
2409;DHT22;8463;48.094;7.970;2022-12-18T12:53:32;-1.30;37.20
2409;DHT22;8463;48.094;7.970;2022-12-18T12:56:00;-1.30;35.00
2409;DHT22;8463;48.094;7.970;2022-12-18T13:09:05;-1.40;33.50
2409;DHT22;8463;48.094;7.970;2022-12-18T13:11:42;-1.50;37.20
2409;DHT22;8463;48.094;7.970;2022-12-18T13:14:36;-1.50;35.20
2409;DHT22;8463;48.094;7.970;2022-12-18T13:20:13;-0.10;60.60
2409;DHT22;8463;48.094;7.970;2022-12-18T13:22:47;-0.10;50.80
2409;DHT22;8463;48.094;7.970;2022-12-18T13:28:13;-0.50;33.60
2409;DHT22;8463;48.094;7.970;2022-12-18T13:30:45;-0.60;32.60
2409;DHT22;8463;48.094;7.970;2022-12-18T13:35:41;-0.70;32.30
2409;DHT22;8463;48.094;7.970;2022-12-18T13:43:49;-1.10;33.80
2409;DHT22;8463;48.094;7.970;2022-12-18T13:46:23;-1.20;36.20
2409;DHT22;8463;48.094;7.970;2022-12-18T13:49:03;-1.30;37.20
2409;DHT22;8463;48.094;7.970;2022-12-18T13:51:33;-1.40;38.30
2409;DHT22;8463;48.094;7.970;2022-12-18T13:56:29;-1.80;41.20
2409;DHT22;8463;48.094;7.970;2022-12-18T13:59:25;-1.80;42.10
2409;DHT22;8463;48.094;7.970;2022-12-18T14:06:51;-2.10;42.90
2409;DHT22;8463;48.094;7.970;2022-12-18T14:09:25;-2.00;44.20
2409;DHT22;8463;48.094;7.970;2022-12-18T14:11:52;-1.90;43.60
2409;DHT22;8463;48.094;7.970;2022-12-18T14:14:44;-1.80;42.90
2409;DHT22;8463;48.094;7.970;2022-12-18T14:17:11;-1.70;42.20
2409;DHT22;8463;48.094;7.970;2022-12-18T14:19:41;-1.90;41.00
2409;DHT22;8463;48.094;7.970;2022-12-18T14:22:16;-1.90;41.30
2409;DHT22;8463;48.094;7.970;2022-12-18T14:24:42;-2.20;42.40
2409;DHT22;8463;48.094;7.970;2022-12-18T14:27:25;-2.20;43.30
2409;DHT22;8463;48.094;7.970;2022-12-18T14:29:51;-2.40;45.20
2409;DHT22;8463;48.094;7.970;2022-12-18T14:32:18;-2.40;45.00
2409;DHT22;8463;48.094;7.970;2022-12-18T14:34:52;-2.40;46.20
2409;DHT22;8463;48.094;7.970;2022-12-18T14:37:24;-2.40;45.90
2409;DHT22;8463;48.094;7.970;2022-12-18T14:42:18;-2.40;46.20
2409;DHT22;8463;48.094;7.970;2022-12-18T14:44:44;-2.40;46.10
2409;DHT22;8463;48.094;7.970;2022-12-18T14:47:15;-2.50;46.00
2409;DHT22;8463;48.094;7.970;2022-12-18T14:49:41;-2.40;47.80
2409;DHT22;8463;48.094;7.970;2022-12-18T14:52:22;-2.40;47.30
2409;DHT22;8463;48.094;7.970;2022-12-18T14:54:49;-2.30;47.50
2409;DHT22;8463;48.094;7.970;2022-12-18T14:59:40;-2.10;45.80
2409;DHT22;8463;48.094;7.970;2022-12-18T15:02:22;-2.20;45.40
2409;DHT22;8463;48.094;7.970;2022-12-18T15:05:00;-2.30;46.40
2409;DHT22;8463;48.094;7.970;2022-12-18T15:07:26;-2.40;47.40
2409;DHT22;8463;48.094;7.970;2022-12-18T15:10:12;-2.50;47.60
2409;DHT22;8463;48.094;7.970;2022-12-18T15:12:44;-2.60;47.80
2409;DHT22;8463;48.094;7.970;2022-12-18T15:20:49;-2.60;49.30
2409;DHT22;8463;48.094;7.970;2022-12-18T15:25:49;-2.60;48.80
2409;DHT22;8463;48.094;7.970;2022-12-18T15:28:23;-2.70;49.10
2409;DHT22;8463;48.094;7.970;2022-12-18T15:33:41;-2.80;49.90
2409;DHT22;8463;48.094;7.970;2022-12-18T15:36:13;-2.80;50.70
2409;DHT22;8463;48.094;7.970;2022-12-18T15:38:39;-2.40;63.50
2409;DHT22;8463;48.094;7.970;2022-12-18T15:41:16;-1.00;67.30
2409;DHT22;8463;48.094;7.970;2022-12-18T15:43:42;-1.40;64.30
2409;DHT22;8463;48.094;7.970;2022-12-18T15:46:17;-1.70;61.10
2409;DHT22;8463;48.094;7.970;2022-12-18T15:48:46;-1.90;60.00
2409;DHT22;8463;48.094;7.970;2022-12-18T15:51:16;-2.10;58.90
2409;DHT22;8463;48.094;7.970;2022-12-18T15:53:42;-2.20;54.90
2409;DHT22;8463;48.094;7.970;2022-12-18T15:56:13;-2.30;53.20
2409;DHT22;8463;48.094;7.970;2022-12-18T15:58:58;-2.40;52.30
2409;DHT22;8463;48.094;7.970;2022-12-18T16:01:26;-2.50;52.60
2409;DHT22;8463;48.094;7.970;2022-12-18T16:03:52;-2.50;52.30
2409;DHT22;8463;48.094;7.970;2022-12-18T16:06:19;-2.50;52.70
2409;DHT22;8463;48.094;7.970;2022-12-18T16:08:44;-2.50;53.00
2409;DHT22;8463;48.094;7.970;2022-12-18T16:11:24;-2.40;53.10
2409;DHT22;8463;48.094;7.970;2022-12-18T16:14:28;-2.40;53.00
2409;DHT22;8463;48.094;7.970;2022-12-18T16:16:56;-2.40;53.10
2409;DHT22;8463;48.094;7.970;2022-12-18T16:19:23;-2.30;52.80
2409;DHT22;8463;48.094;7.970;2022-12-18T16:21:50;-2.30;52.40
2409;DHT22;8463;48.094;7.970;2022-12-18T16:24:19;-2.30;52.20
2409;DHT22;8463;48.094;7.970;2022-12-18T16:26:47;-2.30;52.00
2409;DHT22;8463;48.094;7.970;2022-12-18T16:29:13;-2.30;52.20
2409;DHT22;8463;48.094;7.970;2022-12-18T16:31:39;-2.20;52.10
2409;DHT22;8463;48.094;7.970;2022-12-18T16:34:28;-1.20;64.20
2409;DHT22;8463;48.094;7.970;2022-12-18T16:37:05;-0.20;66.70
2409;DHT22;8463;48.094;7.970;2022-12-18T16:39:32;-0.20;65.30
2409;DHT22;8463;48.094;7.970;2022-12-18T16:42:01;-0.60;64.50
2409;DHT22;8463;48.094;7.970;2022-12-18T16:44:27;-0.90;63.80
2409;DHT22;8463;48.094;7.970;2022-12-18T16:46:53;-1.20;63.30
2409;DHT22;8463;48.094;7.970;2022-12-18T16:49:19;-1.50;61.40
2409;DHT22;8463;48.094;7.970;2022-12-18T16:51:48;-1.70;60.80
2409;DHT22;8463;48.094;7.970;2022-12-18T16:54:14;-1.90;59.10
2409;DHT22;8463;48.094;7.970;2022-12-18T16:56:40;-2.10;57.20
2409;DHT22;8463;48.094;7.970;2022-12-18T16:59:07;-2.10;57.60
2409;DHT22;8463;48.094;7.970;2022-12-18T17:01:35;-2.20;57.30
2409;DHT22;8463;48.094;7.970;2022-12-18T17:04:02;-2.20;55.80
2409;DHT22;8463;48.094;7.970;2022-12-18T17:06:31;-2.20;55.30
2409;DHT22;8463;48.094;7.970;2022-12-18T17:09:06;-2.20;55.20
2409;DHT22;8463;48.094;7.970;2022-12-18T17:11:34;-2.20;54.60
2409;DHT22;8463;48.094;7.970;2022-12-18T17:14:06;-2.20;54.10
2409;DHT22;8463;48.094;7.970;2022-12-18T17:16:31;-2.20;54.40
2409;DHT22;8463;48.094;7.970;2022-12-18T17:18:57;-2.10;53.70
2409;DHT22;8463;48.094;7.970;2022-12-18T17:21:23;-2.10;53.40
2409;DHT22;8463;48.094;7.970;2022-12-18T17:23:48;-2.10;53.00
2409;DHT22;8463;48.094;7.970;2022-12-18T17:26:16;-2.10;52.80
2409;DHT22;8463;48.094;7.970;2022-12-18T17:28:42;-2.10;53.90
2409;DHT22;8463;48.094;7.970;2022-12-18T17:31:13;-2.10;53.30
2409;DHT22;8463;48.094;7.970;2022-12-18T17:33:39;-2.10;53.10
2409;DHT22;8463;48.094;7.970;2022-12-18T17:36:05;-2.10;53.20
2409;DHT22;8463;48.094;7.970;2022-12-18T17:38:31;-2.10;53.00
2409;DHT22;8463;48.094;7.970;2022-12-18T17:41:06;-2.10;53.00
2409;DHT22;8463;48.094;7.970;2022-12-18T17:43:33;-2.10;52.90
2409;DHT22;8463;48.094;7.970;2022-12-18T17:46:02;-2.10;53.10
2409;DHT22;8463;48.094;7.970;2022-12-18T17:48:28;-2.00;53.20
2409;DHT22;8463;48.094;7.970;2022-12-18T17:50:54;-2.00;53.80
2409;DHT22;8463;48.094;7.970;2022-12-18T17:53:20;-2.10;53.60
2409;DHT22;8463;48.094;7.970;2022-12-18T17:55:59;-2.10;53.90
2409;DHT22;8463;48.094;7.970;2022-12-18T17:58:35;-2.10;54.60
2409;DHT22;8463;48.094;7.970;2022-12-18T18:01:01;-2.10;54.70
2409;DHT22;8463;48.094;7.970;2022-12-18T18:03:27;-2.10;55.50
2409;DHT22;8463;48.094;7.970;2022-12-18T18:05:56;-2.10;56.30
2409;DHT22;8463;48.094;7.970;2022-12-18T18:08:22;-2.20;56.70
2409;DHT22;8463;48.094;7.970;2022-12-18T18:10:48;-2.20;57.00
2409;DHT22;8463;48.094;7.970;2022-12-18T18:13:21;-2.20;57.30
2409;DHT22;8463;48.094;7.970;2022-12-18T18:16:07;-2.20;58.00
2409;DHT22;8463;48.094;7.970;2022-12-18T18:18:32;-2.20;58.80
2409;DHT22;8463;48.094;7.970;2022-12-18T18:21:05;-2.20;59.30
2409;DHT22;8463;48.094;7.970;2022-12-18T18:23:32;-2.20;59.60
2409;DHT22;8463;48.094;7.970;2022-12-18T18:26:03;-2.20;60.00
2409;DHT22;8463;48.094;7.970;2022-12-18T18:28:29;-2.10;60.30
2409;DHT22;8463;48.094;7.970;2022-12-18T18:30:55;-2.10;60.40
2409;DHT22;8463;48.094;7.970;2022-12-18T18:33:20;-2.00;60.40
2409;DHT22;8463;48.094;7.970;2022-12-18T18:35:48;-2.00;60.30
2409;DHT22;8463;48.094;7.970;2022-12-18T18:38:14;-2.00;60.20
2409;DHT22;8463;48.094;7.970;2022-12-18T18:40:39;-2.00;60.10